Terminal Aerodrome Forecast
Issued by NWS

Home | Current Version | Previous Version | Text Only | Print | Product List | Glossary On
Versions: 1 2 3 4 5 6 7 8 9 10 11 12 13 14 15
322
FTUS46 KMTR 011739
TAFSJC
TAF
KSJC 011739Z 0118/0218 18005KT P6SM SCT020
     FM011900 31014KT P6SM SKC
     FM020400 31005KT P6SM SKC
     FM020800 27003KT P6SM OVC020
     FM021400 17007KT P6SM OVC020=

USA.gov is the U.S. government's official web portal to all federal, state and local government web resources and services.